Clover Bottom, Kentucky
Current Conditions -  °F | °C
As of 10:15 PM on Friday 21 Nov 2014 (Local Time) from KI39 Reporting Station
Clear Clear  
Wind Chill: 30°   Ceiling: Unl
Heat Index: 30°   Visibility: 10mi
Dew Point: 12°   Wind: 0mph
Humidity: 47%   Direction: NA
Pressure: 30.4"   Gusts: NA
Location:  37.4446°N, 84.0227°W
Report Text: KI39 220315Z AUTO 00000KT 10SM CLR M01/M11 A3040 RMK AO2
Loading
Personal Weather Stations






























Interactive Weather Map New forecast layout! Learn more

10-Day Weather Forecast

Advertisements
Track Severe Weather on mobile